createdAt,value
2017-12-13T00:01:06.174Z,-1.50
2017-12-13T00:03:35.630Z,-1.50
2017-12-13T00:06:04.364Z,-1.50
2017-12-13T00:08:33.838Z,-1.40
2017-12-13T00:11:02.558Z,-1.50
2017-12-13T00:13:32.032Z,-1.50
2017-12-13T00:16:00.760Z,-1.50
2017-12-13T00:18:30.223Z,-1.50
2017-12-13T00:20:59.007Z,-1.60
2017-12-13T00:23:27.714Z,-1.50
2017-12-13T00:25:56.442Z,-1.40
2017-12-13T00:28:25.142Z,-1.40
2017-12-13T00:30:53.864Z,-1.50
2017-12-13T00:33:22.563Z,-1.50
2017-12-13T00:35:51.267Z,-1.40
2017-12-13T00:38:19.996Z,-1.50
2017-12-13T00:40:48.690Z,-1.50
2017-12-13T00:43:17.462Z,-1.50
2017-12-13T00:45:46.238Z,-1.60
2017-12-13T00:48:15.713Z,-1.50
2017-12-13T00:50:44.423Z,-1.60
2017-12-13T00:53:13.922Z,-1.70
2017-12-13T00:55:42.629Z,-1.80
2017-12-13T00:58:12.431Z,-1.70
2017-12-13T01:00:41.563Z,-1.70
2017-12-13T01:03:10.275Z,-1.80
2017-12-13T01:05:38.978Z,-1.80
2017-12-13T01:08:07.894Z,-1.70
2017-12-13T01:10:36.620Z,-1.70
2017-12-13T01:13:05.318Z,-1.70
2017-12-13T01:15:34.027Z,-1.70
2017-12-13T01:18:02.748Z,-1.70
2017-12-13T01:20:32.247Z,-1.90
2017-12-13T01:23:02.463Z,-1.90
2017-12-13T01:25:31.369Z,-1.90
2017-12-13T01:28:00.831Z,-1.90
2017-12-13T01:30:29.539Z,-2.00
2017-12-13T01:32:58.238Z,-1.90
2017-12-13T01:35:26.955Z,-1.90
2017-12-13T01:37:55.657Z,-2.00
2017-12-13T01:40:24.386Z,-2.00
2017-12-13T01:42:53.078Z,-2.00
2017-12-13T01:45:21.782Z,-2.00
2017-12-13T01:47:50.550Z,-3.20
2017-12-13T01:50:19.359Z,-1.90
2017-12-13T01:52:48.067Z,-1.90
2017-12-13T01:55:17.552Z,-1.90
2017-12-13T01:57:46.272Z,-2.00
2017-12-13T02:00:15.282Z,-1.90
2017-12-13T02:02:43.979Z,-1.90
2017-12-13T02:05:12.728Z,-1.90
2017-12-13T02:07:42.202Z,-1.90
2017-12-13T02:10:10.899Z,-2.00
2017-12-13T02:12:39.626Z,-1.90
2017-12-13T02:15:08.319Z,-1.90
2017-12-13T02:17:37.030Z,-1.90
2017-12-13T02:20:05.470Z,-1.80
2017-12-13T02:22:34.285Z,-1.80
2017-12-13T02:25:02.337Z,-1.90
2017-12-13T02:27:31.791Z,-1.90
2017-12-13T02:30:00.495Z,-2.00
2017-12-13T02:32:29.312Z,-2.00
2017-12-13T02:34:58.771Z,-2.00
2017-12-13T02:37:27.504Z,-2.10
2017-12-13T02:40:08.326Z,-1.90
2017-12-13T02:42:37.083Z,-2.00
2017-12-13T02:45:05.915Z,-1.90
2017-12-13T02:47:34.609Z,-2.00
2017-12-13T02:50:03.326Z,-1.90
2017-12-13T02:52:32.450Z,-2.10
2017-12-13T02:55:01.739Z,-2.10
2017-12-13T02:57:31.255Z,-2.00
2017-12-13T02:59:59.610Z,-2.10
2017-12-13T03:02:28.458Z,-2.00
2017-12-13T03:04:57.216Z,-2.10
2017-12-13T03:07:25.910Z,-2.10
2017-12-13T03:09:54.618Z,-2.10
2017-12-13T03:12:23.334Z,-2.20
2017-12-13T03:14:52.062Z,-2.30
2017-12-13T03:17:20.766Z,-2.30
2017-12-13T03:19:49.682Z,-2.20
2017-12-13T03:22:18.422Z,-2.20
2017-12-13T03:24:47.931Z,-2.10
2017-12-13T03:27:16.703Z,-2.20
2017-12-13T03:29:45.410Z,-2.00
2017-12-13T03:32:14.925Z,-1.90
2017-12-13T03:34:43.635Z,-2.00
2017-12-13T03:37:12.430Z,-1.90
2017-12-13T03:39:41.290Z,-2.00
2017-12-13T03:42:10.761Z,-2.00
2017-12-13T03:44:39.507Z,-2.10
2017-12-13T03:47:08.218Z,-2.00
2017-12-13T03:49:36.936Z,-1.90
2017-12-13T03:52:05.682Z,-1.80
2017-12-13T03:54:34.395Z,-1.90
2017-12-13T03:57:03.218Z,-2.00
2017-12-13T03:59:32.742Z,-1.90
2017-12-13T04:02:01.438Z,-1.90
2017-12-13T04:04:30.154Z,-1.80
2017-12-13T04:06:58.850Z,-1.80
2017-12-13T04:09:27.577Z,-1.70
2017-12-13T04:11:57.131Z,-1.80
2017-12-13T04:14:25.822Z,-1.90
2017-12-13T04:16:54.579Z,-1.90
2017-12-13T04:19:23.300Z,-1.90
2017-12-13T04:21:52.002Z,-2.00
2017-12-13T04:24:20.713Z,-1.90
2017-12-13T04:26:50.181Z,-1.90
2017-12-13T04:29:18.874Z,-2.00
2017-12-13T04:31:47.590Z,-1.90
2017-12-13T04:34:16.285Z,-1.80
2017-12-13T04:36:45.757Z,-1.90
2017-12-13T04:39:14.461Z,-1.90
2017-12-13T04:41:43.171Z,-1.80
2017-12-13T04:44:12.626Z,-1.80
2017-12-13T04:46:41.570Z,-1.80
2017-12-13T04:49:11.030Z,-1.90
2017-12-13T04:51:39.742Z,-1.90
2017-12-13T04:54:08.441Z,-1.90
2017-12-13T04:56:37.941Z,-1.90
2017-12-13T04:59:06.644Z,-1.90
2017-12-13T05:01:36.111Z,-2.00
2017-12-13T05:04:04.822Z,-2.10
2017-12-13T05:06:34.307Z,-2.00
2017-12-13T05:09:02.815Z,-2.00
2017-12-13T05:11:31.531Z,-1.90
2017-12-13T05:14:00.231Z,-1.90
2017-12-13T05:16:28.943Z,-1.90
2017-12-13T05:18:57.654Z,-1.80
2017-12-13T05:21:26.351Z,-1.80
2017-12-13T05:23:55.059Z,-1.80
2017-12-13T05:26:24.528Z,-1.80
2017-12-13T05:28:53.281Z,-1.90
2017-12-13T05:31:21.989Z,-1.90
2017-12-13T05:33:50.699Z,-2.10
2017-12-13T05:36:19.454Z,-2.10
2017-12-13T05:38:48.166Z,-2.10
2017-12-13T05:41:16.889Z,-2.00
2017-12-13T05:43:46.378Z,-2.10
2017-12-13T05:46:15.164Z,-2.10
2017-12-13T05:48:45.415Z,-2.20
2017-12-13T05:51:14.883Z,-2.30
2017-12-13T05:53:43.690Z,-2.30
2017-12-13T05:56:12.411Z,-2.40
2017-12-13T05:58:41.110Z,-2.50
2017-12-13T06:01:09.875Z,-2.60
2017-12-13T06:03:39.331Z,-2.60
2017-12-13T06:06:08.031Z,-2.60
2017-12-13T06:08:36.733Z,-2.60
2017-12-13T06:11:05.501Z,-2.60
2017-12-13T06:13:35.110Z,-2.60
2017-12-13T06:16:03.880Z,-2.60
2017-12-13T06:18:32.571Z,-2.60
2017-12-13T06:21:01.342Z,-2.60
2017-12-13T06:23:30.535Z,-2.50
2017-12-13T06:26:00.108Z,-2.50
2017-12-13T06:28:29.087Z,-2.60
2017-12-13T06:30:57.792Z,-2.60
2017-12-13T06:33:27.330Z,-2.50
2017-12-13T06:35:56.043Z,-2.50
2017-12-13T06:38:24.748Z,-2.50
2017-12-13T06:40:53.443Z,-2.50
2017-12-13T06:43:22.135Z,-2.60
2017-12-13T06:45:50.855Z,-2.50
2017-12-13T06:48:20.322Z,-2.50
2017-12-13T06:50:49.038Z,-2.60
2017-12-13T06:53:18.644Z,-2.60
2017-12-13T06:55:48.166Z,-2.70
2017-12-13T06:58:17.627Z,-2.70
2017-12-13T07:00:46.344Z,-2.80
2017-12-13T07:03:15.036Z,-2.70
2017-12-13T07:05:44.655Z,-2.60
2017-12-13T07:08:14.132Z,-2.60
2017-12-13T07:10:42.844Z,-2.60
2017-12-13T07:13:11.599Z,-2.60
2017-12-13T07:15:40.311Z,-2.70
2017-12-13T07:18:09.774Z,-2.90
2017-12-13T07:20:38.486Z,-3.00
2017-12-13T07:23:07.192Z,-3.00
2017-12-13T07:25:36.666Z,-2.80
2017-12-13T07:28:05.374Z,-2.90
2017-12-13T07:30:33.763Z,-2.60
2017-12-13T07:33:03.222Z,-2.50
2017-12-13T07:35:32.063Z,-2.60
2017-12-13T07:38:01.680Z,-2.50
2017-12-13T07:40:31.153Z,-2.40
2017-12-13T07:42:59.862Z,-2.50
2017-12-13T07:45:29.412Z,-2.30
2017-12-13T07:47:58.118Z,-2.40
2017-12-13T07:50:26.847Z,-2.30
2017-12-13T07:52:56.323Z,-2.10
2017-12-13T07:55:25.020Z,-2.10
2017-12-13T07:57:53.830Z,-1.90
2017-12-13T08:00:23.342Z,-1.70
2017-12-13T08:02:52.824Z,-1.70
2017-12-13T08:05:21.527Z,-1.70
2017-12-13T08:07:50.356Z,-1.60
2017-12-13T08:10:19.055Z,-1.50
2017-12-13T08:12:47.807Z,-1.40
2017-12-13T08:15:17.370Z,-1.20
2017-12-13T08:17:46.131Z,-1.20
2017-12-13T08:20:14.895Z,-1.10
2017-12-13T08:22:44.354Z,-0.80
2017-12-13T08:25:13.071Z,-0.90
2017-12-13T08:27:41.798Z,-0.70
2017-12-13T08:30:10.504Z,-0.60
2017-12-13T08:32:39.346Z,-0.70
2017-12-13T08:35:08.830Z,-0.50
2017-12-13T08:37:37.534Z,-0.60
2017-12-13T08:40:06.243Z,-0.50
2017-12-13T08:42:34.935Z,-0.50
2017-12-13T08:45:03.667Z,-0.40
2017-12-13T08:47:32.034Z,-0.30
2017-12-13T08:50:00.384Z,-0.20
2017-12-13T08:52:29.079Z,-0.10
2017-12-13T08:54:57.781Z,0.00
2017-12-13T08:57:27.503Z,0.10
2017-12-13T08:59:56.201Z,0.20
2017-12-13T09:02:24.928Z,0.30
2017-12-13T09:04:54.382Z,0.40
2017-12-13T09:07:23.083Z,0.30
2017-12-13T09:09:51.779Z,0.40
2017-12-13T09:12:20.179Z,0.40
2017-12-13T09:14:49.641Z,0.60
2017-12-13T09:17:18.363Z,0.50
2017-12-13T09:19:47.075Z,0.60
2017-12-13T09:22:16.235Z,0.90
2017-12-13T09:24:44.927Z,0.80
2017-12-13T09:27:13.655Z,0.90
2017-12-13T09:29:42.441Z,0.90
2017-12-13T09:32:11.939Z,1.10
2017-12-13T09:34:41.466Z,1.20
2017-12-13T09:37:09.880Z,1.20
2017-12-13T09:39:38.567Z,1.30
2017-12-13T09:42:07.393Z,1.40
2017-12-13T09:44:36.083Z,1.50
2017-12-13T09:47:05.580Z,1.60
2017-12-13T09:49:34.261Z,1.50
2017-12-13T09:52:02.994Z,1.70
2017-12-13T09:54:31.699Z,1.70
2017-12-13T09:57:00.483Z,1.80
2017-12-13T09:59:28.851Z,1.80
2017-12-13T10:01:57.735Z,2.00
2017-12-13T10:04:26.448Z,2.00
2017-12-13T10:06:55.136Z,2.00
2017-12-13T10:09:23.855Z,2.10
2017-12-13T10:11:52.544Z,2.20
2017-12-13T10:14:21.270Z,2.20
2017-12-13T10:16:50.779Z,2.30
2017-12-13T10:19:20.462Z,2.40
2017-12-13T10:21:49.170Z,2.30
2017-12-13T10:24:18.636Z,2.60
2017-12-13T10:26:47.334Z,2.60
2017-12-13T10:29:16.235Z,2.70
2017-12-13T10:31:44.943Z,2.70
2017-12-13T10:34:14.399Z,2.90
2017-12-13T10:36:43.110Z,2.90
2017-12-13T10:39:11.827Z,2.80
2017-12-13T10:41:41.307Z,3.00
2017-12-13T10:44:09.991Z,2.90
2017-12-13T10:46:40.245Z,3.00
2017-12-13T10:49:09.700Z,3.10
2017-12-13T10:51:38.409Z,3.00
2017-12-13T10:54:07.087Z,3.20
2017-12-13T10:56:36.287Z,3.30
2017-12-13T10:59:04.966Z,3.20
2017-12-13T11:01:33.449Z,3.40
2017-12-13T11:04:02.894Z,3.40
2017-12-13T11:06:31.318Z,3.40
2017-12-13T11:08:59.802Z,3.40
2017-12-13T11:11:27.880Z,3.40
2017-12-13T11:13:56.378Z,3.40
2017-12-13T11:16:24.868Z,2.10
2017-12-13T11:18:53.403Z,3.60
2017-12-13T11:21:21.819Z,3.50
2017-12-13T11:23:51.038Z,3.70
2017-12-13T11:26:20.232Z,3.70
2017-12-13T11:28:49.439Z,3.70
2017-12-13T11:31:17.914Z,3.60
2017-12-13T11:33:47.163Z,3.80
2017-12-13T11:36:16.050Z,3.80
2017-12-13T11:38:44.514Z,3.80
2017-12-13T11:41:13.987Z,3.90
2017-12-13T11:43:43.215Z,3.90
2017-12-13T11:46:11.303Z,3.90
2017-12-13T11:48:39.740Z,4.00
2017-12-13T11:51:09.008Z,4.10
2017-12-13T11:53:37.427Z,4.00
2017-12-13T11:56:06.639Z,4.10
2017-12-13T11:58:35.066Z,4.10
2017-12-13T12:01:03.496Z,4.20
2017-12-13T12:03:32.674Z,4.10
2017-12-13T12:06:01.872Z,4.00
2017-12-13T12:08:30.298Z,3.90
2017-12-13T12:10:58.760Z,4.00
2017-12-13T12:13:27.182Z,3.90
2017-12-13T12:15:55.623Z,3.90
2017-12-13T12:18:24.048Z,4.00
2017-12-13T12:20:53.346Z,4.00
2017-12-13T12:23:22.038Z,3.90
2017-12-13T12:25:50.480Z,3.90
2017-12-13T12:28:18.935Z,3.90
2017-12-13T12:30:48.126Z,3.70
2017-12-13T12:33:16.632Z,3.60
2017-12-13T12:35:45.054Z,3.70
2017-12-13T12:38:13.527Z,3.60
2017-12-13T12:40:41.963Z,3.60
2017-12-13T12:43:11.234Z,3.60
2017-12-13T12:45:39.706Z,3.50
2017-12-13T12:48:08.385Z,3.60
2017-12-13T12:50:36.851Z,3.60
2017-12-13T12:53:05.272Z,3.60
2017-12-13T12:55:33.724Z,3.60
2017-12-13T12:58:02.291Z,3.60
2017-12-13T13:00:30.740Z,3.50
2017-12-13T13:02:59.994Z,3.50
2017-12-13T13:05:28.433Z,3.50
2017-12-13T13:07:57.646Z,3.50
2017-12-13T13:10:26.145Z,3.40
2017-12-13T13:12:54.604Z,3.50
2017-12-13T13:15:22.715Z,3.50
2017-12-13T13:17:50.482Z,3.40
2017-12-13T13:20:18.511Z,3.40
2017-12-13T13:22:47.403Z,3.40
2017-12-13T13:25:16.240Z,3.30
2017-12-13T13:27:44.976Z,3.50
2017-12-13T13:30:13.837Z,3.40
2017-12-13T13:32:42.256Z,3.40
2017-12-13T13:35:10.923Z,3.40
2017-12-13T13:37:39.735Z,3.30
2017-12-13T13:40:08.491Z,3.30
2017-12-13T13:42:37.302Z,3.40
2017-12-13T13:45:06.499Z,3.60
2017-12-13T13:47:35.711Z,3.60
2017-12-13T13:50:03.739Z,3.50
2017-12-13T13:52:32.186Z,3.60
2017-12-13T13:55:02.443Z,3.60
2017-12-13T13:57:30.899Z,3.50
2017-12-13T13:59:59.330Z,3.50
2017-12-13T14:02:27.768Z,3.40
2017-12-13T14:04:57.231Z,3.40
2017-12-13T14:07:26.523Z,3.40
2017-12-13T14:09:54.946Z,3.30
2017-12-13T14:12:23.380Z,3.40
2017-12-13T14:14:51.809Z,3.30
2017-12-13T14:17:20.260Z,3.30
2017-12-13T14:19:49.460Z,3.30
2017-12-13T14:22:18.663Z,3.30
2017-12-13T14:24:47.826Z,3.40
2017-12-13T14:27:16.332Z,3.30
2017-12-13T14:29:44.883Z,3.30
2017-12-13T14:32:13.602Z,3.20
2017-12-13T14:34:42.317Z,3.20
2017-12-13T14:37:10.837Z,3.20
2017-12-13T14:39:39.282Z,3.30
2017-12-13T14:42:07.839Z,3.20
2017-12-13T14:44:36.407Z,3.20
2017-12-13T14:47:05.118Z,3.10
2017-12-13T14:49:33.843Z,3.10
2017-12-13T14:52:02.434Z,3.10
2017-12-13T14:54:30.871Z,3.00
2017-12-13T14:57:00.267Z,3.00
2017-12-13T14:59:28.735Z,3.00
2017-12-13T15:01:57.953Z,3.00
2017-12-13T15:04:26.411Z,3.00
2017-12-13T15:06:55.103Z,3.10
2017-12-13T15:09:23.862Z,3.10
2017-12-13T15:11:52.712Z,3.10
2017-12-13T15:14:21.440Z,3.10
2017-12-13T15:16:50.937Z,3.00
2017-12-13T15:19:20.420Z,2.90
2017-12-13T15:21:49.494Z,2.80
2017-12-13T15:24:17.750Z,2.80
2017-12-13T15:26:46.458Z,2.80
2017-12-13T15:29:15.168Z,2.70
2017-12-13T15:31:43.895Z,2.70
2017-12-13T15:34:13.362Z,2.60
2017-12-13T15:36:42.092Z,2.60
2017-12-13T15:39:10.815Z,2.50
2017-12-13T15:41:39.558Z,2.50
2017-12-13T15:44:09.062Z,2.20
2017-12-13T15:46:38.512Z,2.10
2017-12-13T15:49:07.215Z,2.00
2017-12-13T15:51:35.960Z,2.00
2017-12-13T15:54:04.690Z,1.90
2017-12-13T15:56:33.395Z,1.80
2017-12-13T15:59:02.109Z,1.70
2017-12-13T16:01:31.579Z,1.70
2017-12-13T16:04:00.307Z,1.60
2017-12-13T16:06:29.806Z,1.60
2017-12-13T16:08:59.298Z,1.60
2017-12-13T16:11:28.006Z,1.60
2017-12-13T16:13:57.489Z,1.50
2017-12-13T16:16:27.051Z,1.60
2017-12-13T16:18:55.783Z,1.50
2017-12-13T16:21:24.579Z,1.60
2017-12-13T16:23:52.935Z,1.60
2017-12-13T16:26:21.662Z,1.60
2017-12-13T16:28:51.150Z,1.60
2017-12-13T16:31:19.875Z,1.50
2017-12-13T16:33:48.806Z,1.60
2017-12-13T16:36:17.186Z,1.60
2017-12-13T16:38:45.897Z,1.60
2017-12-13T16:41:14.625Z,1.60
2017-12-13T16:43:43.325Z,1.60
2017-12-13T16:46:12.053Z,1.70
2017-12-13T16:48:40.779Z,1.80
2017-12-13T16:51:09.473Z,1.70
2017-12-13T16:53:37.858Z,1.70
2017-12-13T16:56:06.617Z,1.70
2017-12-13T16:58:36.113Z,1.80
2017-12-13T17:01:04.199Z,1.70
2017-12-13T17:03:33.681Z,1.80
2017-12-13T17:06:02.383Z,1.70
2017-12-13T17:08:30.980Z,1.80
2017-12-13T17:11:00.529Z,1.80
2017-12-13T17:13:29.289Z,1.80
2017-12-13T17:15:58.495Z,1.80
2017-12-13T17:18:27.214Z,1.70
2017-12-13T17:20:55.931Z,1.90
2017-12-13T17:23:24.664Z,1.90
2017-12-13T17:25:53.377Z,1.90
2017-12-13T17:28:22.122Z,1.90
2017-12-13T17:30:51.570Z,2.00
2017-12-13T17:33:20.534Z,2.00
2017-12-13T17:35:48.905Z,1.90
2017-12-13T17:38:18.502Z,2.00
2017-12-13T17:40:48.039Z,2.00
2017-12-13T17:43:16.765Z,1.90
2017-12-13T17:45:45.402Z,2.00
2017-12-13T17:48:14.196Z,2.00
2017-12-13T17:50:42.892Z,2.10
2017-12-13T17:53:11.615Z,2.00
2017-12-13T17:55:40.319Z,2.10
2017-12-13T17:58:09.505Z,2.00
2017-12-13T18:00:38.212Z,2.00
2017-12-13T18:03:06.958Z,2.00
2017-12-13T18:05:36.594Z,2.10
2017-12-13T18:08:05.358Z,2.00
2017-12-13T18:10:34.091Z,2.10
2017-12-13T18:13:02.818Z,2.20
2017-12-13T18:15:31.410Z,2.20
2017-12-13T18:18:00.120Z,2.10
2017-12-13T18:20:28.854Z,2.20
2017-12-13T18:22:58.423Z,2.30
2017-12-13T18:25:27.141Z,2.20
2017-12-13T18:27:55.907Z,2.30
2017-12-13T18:30:24.292Z,2.30
2017-12-13T18:32:52.997Z,2.30
2017-12-13T18:35:21.740Z,2.30
2017-12-13T18:37:50.443Z,2.20
2017-12-13T18:40:19.176Z,2.30
2017-12-13T18:42:48.654Z,2.40
2017-12-13T18:45:17.383Z,2.30
2017-12-13T18:47:45.770Z,2.40
2017-12-13T18:50:14.504Z,2.50
2017-12-13T18:52:43.191Z,2.40
2017-12-13T18:55:11.950Z,2.40
2017-12-13T18:57:40.696Z,2.40
2017-12-13T19:00:09.515Z,2.50
2017-12-13T19:02:38.226Z,2.40
2017-12-13T19:05:07.076Z,2.40
2017-12-13T19:07:36.595Z,2.30
2017-12-13T19:10:05.375Z,2.30
2017-12-13T19:12:34.888Z,2.20
2017-12-13T19:15:03.777Z,2.20
2017-12-13T19:17:32.501Z,2.30
2017-12-13T19:20:01.300Z,2.40
2017-12-13T19:22:30.044Z,2.60
2017-12-13T19:24:58.794Z,2.80
2017-12-13T19:27:27.179Z,2.90
2017-12-13T19:29:55.913Z,3.00
2017-12-13T19:32:24.617Z,3.00
2017-12-13T19:34:53.384Z,3.00
2017-12-13T19:37:22.102Z,3.20
2017-12-13T19:39:51.014Z,3.10
2017-12-13T19:42:19.348Z,3.10
2017-12-13T19:44:48.062Z,3.20
2017-12-13T19:47:16.870Z,3.10
2017-12-13T19:49:45.615Z,3.20
2017-12-13T19:52:14.336Z,3.20
2017-12-13T19:54:43.051Z,3.20
2017-12-13T19:57:11.770Z,3.30
2017-12-13T19:59:40.502Z,3.40
2017-12-13T20:02:09.737Z,3.40
2017-12-13T20:04:38.180Z,3.40
2017-12-13T20:07:06.927Z,3.50
2017-12-13T20:09:36.414Z,3.60
2017-12-13T20:12:04.546Z,3.50
2017-12-13T20:14:32.996Z,3.60
2017-12-13T20:17:01.576Z,3.70
2017-12-13T20:19:30.001Z,3.60
2017-12-13T20:21:59.234Z,3.70
2017-12-13T20:24:27.692Z,3.60
2017-12-13T20:26:56.914Z,3.70
2017-12-13T20:29:25.351Z,3.70
2017-12-13T20:31:53.807Z,3.80
2017-12-13T20:34:22.272Z,3.80
2017-12-13T20:36:50.862Z,3.70
2017-12-13T20:39:19.354Z,3.80
2017-12-13T20:41:47.781Z,3.70
2017-12-13T20:44:17.238Z,3.70
2017-12-13T20:46:45.955Z,3.70
2017-12-13T20:49:14.712Z,3.70
2017-12-13T20:51:43.440Z,3.70
2017-12-13T20:54:11.969Z,3.80
2017-12-13T20:56:40.715Z,3.80
2017-12-13T20:59:09.165Z,3.70
2017-12-13T21:01:37.630Z,3.60
2017-12-13T21:04:06.105Z,3.60
2017-12-13T21:06:35.586Z,3.50
2017-12-13T21:09:03.515Z,3.50
2017-12-13T21:11:32.241Z,3.50
2017-12-13T21:14:01.488Z,3.60
2017-12-13T21:16:30.195Z,3.50
2017-12-13T21:18:59.537Z,3.50
2017-12-13T21:21:27.996Z,3.50
2017-12-13T21:23:56.527Z,3.50
2017-12-13T21:26:25.018Z,3.50
2017-12-13T21:28:53.691Z,3.60
2017-12-13T21:31:22.148Z,3.60
2017-12-13T21:33:51.395Z,3.70
2017-12-13T21:36:19.858Z,3.60
2017-12-13T21:38:48.308Z,3.70
2017-12-13T21:41:17.735Z,3.70
2017-12-13T21:43:46.204Z,3.60
2017-12-13T21:46:14.640Z,3.60
2017-12-13T21:48:43.152Z,3.50
2017-12-13T21:51:12.358Z,3.60
2017-12-13T21:53:41.692Z,3.50
2017-12-13T21:56:10.141Z,3.50
2017-12-13T21:58:39.362Z,3.50
2017-12-13T22:01:07.804Z,3.40
2017-12-13T22:03:37.023Z,3.50
2017-12-13T22:06:06.218Z,3.50
2017-12-13T22:08:35.430Z,3.50
2017-12-13T22:11:04.642Z,3.50
2017-12-13T22:13:33.083Z,3.40
2017-12-13T22:16:01.528Z,3.40
2017-12-13T22:18:30.115Z,3.40
2017-12-13T22:20:58.560Z,3.40
2017-12-13T22:23:27.018Z,3.50
2017-12-13T22:25:56.243Z,3.40
2017-12-13T22:28:24.682Z,3.40
2017-12-13T22:30:53.242Z,3.40
2017-12-13T22:33:21.815Z,3.50
2017-12-13T22:35:50.264Z,3.40
2017-12-13T22:38:19.566Z,3.40
2017-12-13T22:40:48.792Z,3.30
2017-12-13T22:43:17.504Z,3.30
2017-12-13T22:45:45.654Z,3.30
2017-12-13T22:48:15.124Z,3.30
2017-12-13T22:50:43.283Z,3.20
2017-12-13T22:53:12.131Z,3.30
2017-12-13T22:55:40.839Z,3.20
2017-12-13T22:58:09.260Z,3.20
2017-12-13T23:00:49.771Z,3.30
2017-12-13T23:03:18.907Z,3.20
2017-12-13T23:05:47.625Z,3.20
2017-12-13T23:08:16.902Z,3.20
2017-12-13T23:10:45.363Z,3.20
2017-12-13T23:13:13.987Z,3.30
2017-12-13T23:15:43.017Z,3.20
2017-12-13T23:18:11.702Z,3.20
2017-12-13T23:20:40.139Z,3.20
2017-12-13T23:23:08.571Z,3.30
2017-12-13T23:25:37.699Z,3.30
2017-12-13T23:28:05.479Z,3.30
2017-12-13T23:30:33.939Z,3.30
2017-12-13T23:33:02.383Z,3.30
2017-12-13T23:35:30.814Z,3.30
2017-12-13T23:37:59.267Z,3.30
2017-12-13T23:40:28.865Z,3.40
2017-12-13T23:42:56.985Z,3.30
2017-12-13T23:45:25.608Z,3.40
2017-12-13T23:47:54.043Z,3.40
2017-12-13T23:50:22.488Z,3.40
2017-12-13T23:52:50.994Z,3.40
2017-12-13T23:55:19.464Z,3.40
2017-12-13T23:57:47.904Z,3.40
